Time;durP1;ratioP1;P1;durP2;ratioP2;P2;SDS_P1;SDS_P2;PMS_P1;PMS_P2;Temp;Humidity;BMP_temperature;BMP_pressure;BME280_temperature;BME280_humidity;BME280_pressure;Samples;Min_cycle;Max_cycle;Signal;HPM_P1;HPM_P2
2022/01/18 00:01:10;;;;;;;0.30;0.10;;;2.60;99.90;;;;;;5095002;28;20480;-88
2022/01/18 00:03:37;;;;;;;0.30;0.10;;;2.60;99.90;;;;;;5093957;28;20457;-87
2022/01/18 00:06:04;;;;;;;0.30;0.10;;;2.60;99.90;;;;;;5093240;28;20442;-87
2022/01/18 00:08:33;;;;;;;0.30;0.20;;;2.60;99.90;;;;;;5093004;28;20487;-87
2022/01/18 00:11:00;;;;;;;1.27;0.93;;;2.60;99.90;;;;;;5093128;28;20204;-86
2022/01/18 00:13:40;;;;;;;0.30;0.10;;;2.60;99.90;;;;;;5092374;28;20969;-88
2022/01/18 00:16:27;;;;;;;0.30;0.10;;;2.60;99.90;;;;;;5090745;28;20443;-89
2022/01/18 00:18:55;;;;;;;0.30;0.10;;;2.60;99.90;;;;;;5090010;28;20493;-86
2022/01/18 00:21:30;;;;;;;0.30;0.10;;;2.60;99.90;;;;;;5093257;28;20442;-87
2022/01/18 00:23:59;;;;;;;0.30;0.20;;;2.60;99.90;;;;;;5092591;28;20450;-87
2022/01/18 00:26:30;;;;;;;0.30;0.20;;;2.70;99.90;;;;;;5089560;28;20511;-89
2022/01/18 00:29:03;;;;;;;0.30;0.10;;;2.70;99.90;;;;;;5093604;28;20438;-85
2022/01/18 00:31:43;;;;;;;0.30;0.20;;;2.60;99.90;;;;;;5098122;28;20506;-87
2022/01/18 00:34:15;;;;;;;0.30;0.10;;;2.70;99.90;;;;;;5114235;28;20492;-87
2022/01/18 00:36:54;;;;;;;0.67;0.37;;;2.60;99.90;;;;;;5107677;28;20446;-85
2022/01/18 00:39:23;;;;;;;5.80;0.93;;;2.70;99.90;;;;;;5106655;28;20443;-87
2022/01/18 00:41:50;;;;;;;0.30;0.10;;;2.70;99.90;;;;;;5090674;28;20492;-86
2022/01/18 00:44:17;;;;;;;0.30;0.10;;;2.70;99.90;;;;;;5081672;28;20833;-87
2022/01/18 00:46:46;;;;;;;0.30;0.10;;;2.70;99.90;;;;;;5088374;28;20207;-87
2022/01/18 00:49:14;;;;;;;0.30;0.30;;;2.80;99.90;;;;;;5091834;28;20521;-88
2022/01/18 00:51:44;;;;;;;0.30;0.10;;;2.70;99.90;;;;;;5092603;28;20445;-87
2022/01/18 00:54:18;;;;;;;0.30;0.10;;;2.70;99.90;;;;;;5089251;28;20519;-86
2022/01/18 00:56:47;;;;;;;0.30;0.10;;;2.70;99.90;;;;;;5091542;28;20453;-88
2022/01/18 00:59:14;;;;;;;0.30;0.10;;;2.70;99.90;;;;;;5092164;28;20442;-87
2022/01/18 01:01:41;;;;;;;0.30;0.10;;;2.80;99.90;;;;;;5092678;28;20449;-88
2022/01/18 01:04:08;;;;;;;0.30;0.10;;;2.80;99.90;;;;;;5091994;28;20454;-87
2022/01/18 01:06:36;;;;;;;0.30;0.10;;;2.80;99.90;;;;;;5091978;28;20454;-88
2022/01/18 01:09:04;;;;;;;0.30;0.10;;;2.80;99.90;;;;;;5086686;28;20450;-89
2022/01/18 01:11:36;;;;;;;0.53;0.53;;;2.70;99.90;;;;;;5089905;28;20200;-87
2022/01/18 01:14:06;;;;;;;0.30;0.10;;;2.70;99.90;;;;;;5091771;28;20480;-88
2022/01/18 01:16:56;;;;;;;0.30;0.10;;;2.70;99.90;;;;;;5088340;28;20454;-88
2022/01/18 01:19:40;;;;;;;0.40;0.30;;;2.70;99.90;;;;;;5091703;28;20441;-88
2022/01/18 01:33:28;;;;;;;0.93;0.37;;;2.70;99.90;;;;;;5087268;28;20495;-89
2022/01/18 01:36:11;;;;;;;0.30;0.10;;;2.70;99.90;;;;;;5090157;28;20523;-87
2022/01/18 01:41:48;;;;;;;0.30;0.10;;;2.70;99.90;;;;;;5088704;28;20784;-89
2022/01/18 01:44:26;;;;;;;0.30;0.20;;;2.80;99.90;;;;;;5089563;28;20542;-87
2022/01/18 01:46:54;;;;;;;0.30;0.20;;;2.70;99.90;;;;;;5089991;28;20197;-86
2022/01/18 01:49:23;;;;;;;0.30;0.20;;;2.70;99.90;;;;;;5091361;28;20527;-86
2022/01/18 01:51:50;;;;;;;0.30;0.10;;;2.70;99.90;;;;;;5091409;28;20459;-89
2022/01/18 01:54:18;;;;;;;0.30;0.10;;;2.70;99.90;;;;;;5086773;28;20493;-88
2022/01/18 01:56:47;;;;;;;0.30;0.10;;;2.70;99.90;;;;;;5091023;28;20253;-88
2022/01/18 01:59:14;;;;;;;0.30;0.10;;;2.70;99.90;;;;;;5090697;28;20443;-88
2022/01/18 02:01:44;;;;;;;0.30;0.10;;;2.80;99.90;;;;;;5089561;28;20447;-89
2022/01/18 02:04:13;;;;;;;0.30;0.10;;;2.80;99.90;;;;;;5089486;28;20447;-87
2022/01/18 02:06:41;;;;;;;0.30;0.10;;;2.80;99.90;;;;;;5091124;28;20797;-88
2022/01/18 02:09:08;;;;;;;0.30;0.10;;;2.80;99.90;;;;;;5109964;28;20427;-87
2022/01/18 02:11:35;;;;;;;0.30;0.10;;;2.90;99.90;;;;;;5112121;28;20500;-86
2022/01/18 02:14:04;;;;;;;0.30;0.10;;;2.90;99.90;;;;;;5107127;28;20502;-86
2022/01/18 02:22:06;;;;;;;0.30;0.10;;;3.00;99.90;;;;;;5085072;28;20432;-87
2022/01/18 02:24:33;;;;;;;0.30;0.10;;;2.90;99.90;;;;;;5084115;28;20475;-89
2022/01/18 02:27:00;;;;;;;0.30;0.10;;;2.90;99.90;;;;;;5084703;28;20998;-87
2022/01/18 02:29:27;;;;;;;0.30;0.10;;;2.90;99.90;;;;;;5090391;28;20492;-88
2022/01/18 02:31:55;;;;;;;0.30;0.10;;;2.90;99.90;;;;;;5089733;28;20945;-87
2022/01/18 02:34:22;;;;;;;0.30;0.20;;;2.90;99.90;;;;;;5089506;28;21030;-86
2022/01/18 02:36:50;;;;;;;2.00;1.90;;;2.90;99.90;;;;;;5087313;28;20521;-86
2022/01/18 02:39:22;;;;;;;0.30;0.10;;;2.90;99.90;;;;;;5088119;28;20506;-88
2022/01/18 02:41:57;;;;;;;0.40;0.30;;;2.90;99.90;;;;;;5088599;28;20515;-87
2022/01/18 02:44:25;;;;;;;0.30;0.10;;;2.90;99.90;;;;;;5090236;28;20446;-88
2022/01/18 02:46:53;;;;;;;0.30;0.10;;;2.90;99.90;;;;;;5089650;28;20563;-88
2022/01/18 02:49:20;;;;;;;0.30;0.10;;;2.90;99.90;;;;;;5090167;28;20447;-90
2022/01/18 02:51:47;;;;;;;0.30;0.10;;;3.00;99.90;;;;;;5089390;28;20466;-88
2022/01/18 02:54:15;;;;;;;1.17;1.07;;;2.90;99.90;;;;;;5090277;28;20474;-87
2022/01/18 02:56:47;;;;;;;0.40;0.40;;;2.90;99.90;;;;;;5089875;28;20466;-87
2022/01/18 02:59:23;;;;;;;0.30;0.10;;;2.90;99.90;;;;;;5088721;28;20814;-86
2022/01/18 03:04:38;;;;;;;1.03;0.93;;;2.90;99.90;;;;;;5088296;28;20994;-90
2022/01/18 03:07:06;;;;;;;0.30;0.10;;;2.90;99.90;;;;;;5088384;28;20550;-87
2022/01/18 03:09:33;;;;;;;0.30;0.10;;;2.90;99.90;;;;;;5090177;28;20504;-88
2022/01/18 03:12:02;;;;;;;0.30;0.10;;;2.90;99.90;;;;;;5094544;28;20419;-86
2022/01/18 03:14:29;;;;;;;0.30;0.10;;;2.90;99.90;;;;;;5112790;28;20478;-87
2022/01/18 03:16:56;;;;;;;0.30;0.10;;;2.90;99.90;;;;;;5114245;28;20476;-88
2022/01/18 03:19:23;;;;;;;0.30;0.10;;;2.90;99.90;;;;;;5113381;28;20481;-82
2022/01/18 03:21:53;;;;;;;0.30;0.20;;;2.90;99.90;;;;;;5114699;28;20426;-84
2022/01/18 03:24:42;;;;;;;0.30;0.20;;;2.90;99.90;;;;;;5114349;28;20700;-84
2022/01/18 03:29:54;;;;;;;0.30;0.10;;;2.90;99.90;;;;;;5101199;28;20450;-85
2022/01/18 03:32:21;;;;;;;0.30;0.10;;;2.80;99.90;;;;;;5093433;28;20466;-85
2022/01/18 03:34:48;;;;;;;0.30;0.10;;;2.80;99.90;;;;;;5094514;28;20519;-86
2022/01/18 03:37:15;;;;;;;0.30;0.10;;;2.90;99.90;;;;;;5095138;28;20459;-86
2022/01/18 03:39:42;;;;;;;0.30;0.10;;;2.90;99.90;;;;;;5094233;28;20439;-87
2022/01/18 03:42:34;;;;;;;0.30;0.10;;;2.90;99.90;;;;;;5093867;28;20463;-85
2022/01/18 03:45:04;;;;;;;0.93;0.83;;;2.90;99.90;;;;;;5113108;28;20472;-87
2022/01/18 03:47:31;;;;;;;0.30;0.10;;;2.80;99.90;;;;;;5113432;28;20477;-85
2022/01/18 03:49:58;;;;;;;0.30;0.10;;;2.80;99.90;;;;;;5094626;28;20781;-85
2022/01/18 03:52:26;;;;;;;0.30;0.10;;;2.80;99.90;;;;;;5082632;28;20439;-88
2022/01/18 03:54:54;;;;;;;0.30;0.10;;;2.80;99.90;;;;;;5080607;28;20533;-85
2022/01/18 03:57:23;;;;;;;0.30;0.20;;;2.80;99.90;;;;;;5082822;28;20538;-87
2022/01/18 03:59:51;;;;;;;0.30;0.10;;;2.90;99.90;;;;;;5081770;28;20459;-86
2022/01/18 04:02:18;;;;;;;0.30;0.10;;;2.90;99.90;;;;;;5086822;28;20504;-87
2022/01/18 04:04:45;;;;;;;0.30;0.20;;;2.90;99.90;;;;;;5086821;28;20500;-87
2022/01/18 04:07:13;;;;;;;0.30;0.10;;;2.80;99.90;;;;;;5087834;28;20800;-87
2022/01/18 04:09:40;;;;;;;0.30;0.20;;;2.80;99.90;;;;;;5089472;28;20488;-86
2022/01/18 04:12:08;;;;;;;0.40;0.30;;;2.80;99.90;;;;;;5089871;28;20512;-87
2022/01/18 04:14:36;;;;;;;0.30;0.10;;;2.80;99.90;;;;;;5089196;28;20474;-86
2022/01/18 04:17:10;;;;;;;0.30;0.10;;;2.80;99.90;;;;;;5089048;28;20434;-86
2022/01/18 04:28:00;;;;;;;0.30;0.20;;;2.80;99.90;;;;;;5087825;28;20742;-88
2022/01/18 04:30:28;;;;;;;0.40;0.40;;;2.80;99.90;;;;;;5089153;28;20438;-86
2022/01/18 04:32:55;;;;;;;0.30;0.20;;;2.80;99.90;;;;;;5095083;28;20462;-87
2022/01/18 04:35:22;;;;;;;0.30;0.10;;;2.80;99.90;;;;;;5095545;28;20487;-87
2022/01/18 04:37:49;;;;;;;0.30;0.10;;;2.80;99.90;;;;;;5095436;28;20466;-85
2022/01/18 04:40:18;;;;;;;0.30;0.10;;;2.80;99.90;;;;;;5095831;28;20872;-85
2022/01/18 04:43:03;;;;;;;0.40;0.30;;;2.80;99.90;;;;;;5093861;28;20435;-85
2022/01/18 04:48:27;;;;;;;0.30;0.10;;;2.80;99.90;;;;;;5094726;28;20439;-88
2022/01/18 04:50:55;;;;;;;0.30;0.10;;;2.80;99.90;;;;;;5091922;28;20454;-88
2022/01/18 04:53:22;;;;;;;0.30;0.10;;;2.80;99.90;;;;;;5079280;28;20832;-86
2022/01/18 04:55:54;;;;;;;0.30;0.10;;;2.80;99.90;;;;;;5090581;28;20463;-88
2022/01/18 04:58:22;;;;;;;0.30;0.20;;;2.80;99.90;;;;;;5089592;28;20568;-87
2022/01/18 05:00:52;;;;;;;0.30;0.10;;;2.80;99.90;;;;;;5091551;28;20459;-85
2022/01/18 05:03:19;;;;;;;0.30;0.10;;;2.70;99.90;;;;;;5088251;28;20439;-86
2022/01/18 05:05:48;;;;;;;0.30;0.10;;;2.70;99.90;;;;;;5087838;28;20950;-86
2022/01/18 05:08:16;;;;;;;0.30;0.20;;;2.60;99.90;;;;;;5089600;28;20448;-85
2022/01/18 05:10:50;;;;;;;0.30;0.20;;;2.50;99.90;;;;;;5090794;28;20450;-85
2022/01/18 05:13:31;;;;;;;0.30;0.10;;;2.50;99.90;;;;;;5089644;28;20206;-85
2022/01/18 05:16:14;;;;;;;0.30;0.10;;;2.40;99.90;;;;;;5096458;28;20497;-86
2022/01/18 05:19:05;;;;;;;0.30;0.20;;;2.40;99.90;;;;;;5095582;28;20447;-85
2022/01/18 05:22:55;;;;;;;0.30;0.10;;;2.30;99.90;;;;;;5107410;28;20512;-85
2022/01/18 05:24:20;;;;;;;0.30;0.10;;;2.40;99.90;;;;;;5101083;28;20475;-86
2022/01/18 05:26:47;;;;;;;0.30;0.10;;;2.30;99.90;;;;;;5087175;28;20468;-87
2022/01/18 05:29:14;;;;;;;0.30;0.10;;;2.30;99.90;;;;;;5085876;28;20196;-86
2022/01/18 05:31:44;;;;;;;0.30;0.10;;;2.30;99.90;;;;;;5086753;28;20439;-88
2022/01/18 05:34:11;;;;;;;0.30;0.10;;;2.30;99.90;;;;;;5091914;28;20474;-87
2022/01/18 05:36:38;;;;;;;0.30;0.10;;;2.30;99.90;;;;;;5089258;28;20906;-87
2022/01/18 05:39:05;;;;;;;0.30;0.17;;;2.30;99.90;;;;;;5089146;28;20503;-87
2022/01/18 05:41:33;;;;;;;0.30;0.10;;;2.20;99.90;;;;;;5089133;28;20464;-85
2022/01/18 05:43:59;;;;;;;0.30;0.13;;;2.20;99.90;;;;;;5091745;28;20495;-87
2022/01/18 05:46:26;;;;;;;0.30;0.10;;;2.20;99.90;;;;;;5091069;28;20459;-85
2022/01/18 05:48:55;;;;;;;0.30;0.20;;;2.20;99.90;;;;;;5090452;28;20443;-88
2022/01/18 05:51:22;;;;;;;0.30;0.10;;;2.10;99.90;;;;;;5090473;28;20507;-88
2022/01/18 05:53:49;;;;;;;0.30;0.10;;;2.10;99.90;;;;;;5088655;28;20462;-91
2022/01/18 05:56:16;;;;;;;0.30;0.10;;;2.10;99.90;;;;;;5090763;28;20512;-89
2022/01/18 05:58:44;;;;;;;0.40;0.40;;;2.10;99.90;;;;;;5079417;28;20655;-89
2022/01/18 06:01:13;;;;;;;0.30;0.10;;;2.00;99.90;;;;;;5070920;28;20459;-87
2022/01/18 06:03:53;;;;;;;0.90;0.88;;;2.00;99.90;;;;;;5071029;28;20551;-87
2022/01/18 06:09:06;;;;;;;0.50;0.40;;;2.00;99.90;;;;;;5071658;28;20411;-87
2022/01/18 06:11:33;;;;;;;0.30;0.10;;;2.00;99.90;;;;;;5076526;28;20882;-87
2022/01/18 06:14:01;;;;;;;0.30;0.10;;;2.00;99.90;;;;;;5091467;28;20458;-87
2022/01/18 06:16:28;;;;;;;0.30;0.10;;;2.00;99.90;;;;;;5091055;28;20198;-88
2022/01/18 06:18:55;;;;;;;0.30;0.17;;;2.00;99.90;;;;;;5090497;28;20268;-87
2022/01/18 06:21:25;;;;;;;0.50;0.50;;;2.00;99.90;;;;;;5080081;28;20536;-87
2022/01/18 06:23:52;;;;;;;0.30;0.10;;;2.00;99.90;;;;;;5070972;28;20466;-87
2022/01/18 06:26:19;;;;;;;0.30;0.10;;;1.90;99.90;;;;;;5071012;28;20503;-86
2022/01/18 06:28:46;;;;;;;0.30;0.10;;;2.00;99.90;;;;;;5070719;28;20803;-88
2022/01/18 06:31:14;;;;;;;0.30;0.10;;;2.00;99.90;;;;;;5071285;28;20843;-87
2022/01/18 06:33:41;;;;;;;0.30;0.10;;;2.00;99.90;;;;;;5076754;28;20929;-88
2022/01/18 06:36:08;;;;;;;0.30;0.10;;;2.10;99.90;;;;;;5091189;28;20884;-89
2022/01/18 06:38:36;;;;;;;0.30;0.10;;;2.10;99.90;;;;;;5090261;28;20810;-89
2022/01/18 06:41:04;;;;;;;0.30;0.20;;;2.10;99.90;;;;;;5090706;28;20940;-88
2022/01/18 06:43:31;;;;;;;0.30;0.20;;;2.10;99.90;;;;;;5091177;28;20941;-87
2022/01/18 06:45:58;;;;;;;0.30;0.10;;;2.10;99.90;;;;;;5072565;28;20942;-87
2022/01/18 06:48:25;;;;;;;0.30;0.10;;;2.10;99.90;;;;;;5070272;28;20208;-87
2022/01/18 06:50:52;;;;;;;0.30;0.20;;;2.10;99.90;;;;;;5084242;28;20462;-86
2022/01/18 06:53:20;;;;;;;0.30;0.10;;;2.10;99.90;;;;;;5090252;28;20438;-88
2022/01/18 06:55:52;;;;;;;0.30;0.10;;;2.20;99.90;;;;;;5097259;28;20542;-88
2022/01/18 06:58:19;;;;;;;0.30;0.10;;;2.10;99.90;;;;;;5112528;28;20474;-88
2022/01/18 07:00:46;;;;;;;0.30;0.10;;;2.20;99.90;;;;;;5108990;28;20446;-86
2022/01/18 07:03:13;;;;;;;0.30;0.20;;;2.10;99.90;;;;;;5108018;28;20509;-86
2022/01/18 07:05:40;;;;;;;0.40;0.30;;;2.20;99.90;;;;;;5093378;28;20455;-87
2022/01/18 07:08:07;;;;;;;0.30;0.10;;;2.10;99.90;;;;;;5083073;28;20473;-87
2022/01/18 07:10:34;;;;;;;0.30;0.10;;;2.20;99.90;;;;;;5074795;28;20466;-85
2022/01/18 07:13:03;;;;;;;2.00;0.77;;;2.20;99.90;;;;;;5070861;28;20447;-86
2022/01/18 07:15:30;;;;;;;0.30;0.10;;;2.20;99.90;;;;;;5069405;28;21203;-87
2022/01/18 07:17:57;;;;;;;0.30;0.10;;;2.20;99.90;;;;;;5070491;28;20208;-87
2022/01/18 07:20:33;;;;;;;0.30;0.10;;;2.20;99.90;;;;;;5081072;28;20239;-87
2022/01/18 07:23:00;;;;;;;0.30;0.10;;;2.20;99.90;;;;;;5084647;28;20196;-87
2022/01/18 07:25:27;;;;;;;0.30;0.20;;;2.30;99.90;;;;;;5088271;28;20929;-87
2022/01/18 07:27:54;;;;;;;0.30;0.10;;;2.30;99.90;;;;;;5085298;28;20458;-89
2022/01/18 07:30:23;;;;;;;0.30;0.10;;;2.30;99.90;;;;;;5086494;28;20651;-87
2022/01/18 07:32:51;;;;;;;0.30;0.10;;;2.30;99.90;;;;;;5077832;28;21240;-87
2022/01/18 07:35:18;;;;;;;0.30;0.10;;;2.20;99.90;;;;;;5087933;28;20558;-88
2022/01/18 07:37:45;;;;;;;0.30;0.10;;;2.20;99.90;;;;;;5089513;28;20490;-86
2022/01/18 07:40:15;;;;;;;0.30;0.20;;;2.40;99.90;;;;;;5075605;28;20516;-85
2022/01/18 07:42:42;;;;;;;0.30;0.10;;;2.40;99.90;;;;;;5088838;28;20515;-85
2022/01/18 07:45:11;;;;;;;1.70;1.17;;;2.40;99.90;;;;;;5088912;28;20446;-86
2022/01/18 07:47:39;;;;;;;0.30;0.20;;;2.50;99.90;;;;;;5085652;28;20466;-87
2022/01/18 07:50:07;;;;;;;0.30;0.10;;;2.50;99.90;;;;;;5084766;28;20458;-85
2022/01/18 07:52:35;;;;;;;2.20;2.20;;;2.60;99.90;;;;;;5088319;28;20435;-86
2022/01/18 07:55:03;;;;;;;0.30;0.20;;;2.60;99.90;;;;;;5085439;28;20491;-87
2022/01/18 07:57:30;;;;;;;0.30;0.10;;;2.50;99.90;;;;;;5089376;28;20486;-85
2022/01/18 07:59:57;;;;;;;0.30;0.10;;;2.50;99.90;;;;;;5090162;28;20503;-86
2022/01/18 08:02:24;;;;;;;0.30;0.10;;;2.60;99.90;;;;;;5093625;28;21008;-86
2022/01/18 08:04:52;;;;;;;0.30;0.10;;;2.50;99.90;;;;;;5095900;28;20463;-87
2022/01/18 08:07:19;;;;;;;0.30;0.10;;;2.60;99.90;;;;;;5094439;28;20443;-86
2022/01/18 08:09:47;;;;;;;0.30;0.10;;;2.70;99.90;;;;;;5080040;28;20521;-85
2022/01/18 08:12:14;;;;;;;0.30;0.10;;;2.70;99.90;;;;;;5073955;28;20806;-85
2022/01/18 08:14:46;;;;;;;0.30;0.10;;;2.70;99.90;;;;;;5074653;28;20485;-86
2022/01/18 08:17:13;;;;;;;0.40;0.20;;;2.70;99.90;;;;;;5088498;28;20467;-86
2022/01/18 08:19:40;;;;;;;0.30;0.10;;;2.70;99.90;;;;;;5079858;28;20446;-86
2022/01/18 08:22:10;;;;;;;0.30;0.10;;;2.70;99.90;;;;;;5093778;28;20445;-86
2022/01/18 08:24:38;;;;;;;0.30;0.10;;;2.80;99.90;;;;;;5093582;28;20450;-86
2022/01/18 08:27:05;;;;;;;0.30;0.20;;;2.80;99.90;;;;;;5092629;28;20462;-86
2022/01/18 08:29:32;;;;;;;0.30;0.10;;;2.80;99.90;;;;;;5094928;28;20461;-86
2022/01/18 08:31:59;;;;;;;0.30;0.10;;;2.90;99.90;;;;;;5100855;28;20419;-86
2022/01/18 08:34:26;;;;;;;0.30;0.10;;;2.90;99.90;;;;;;5098095;28;20447;-87
2022/01/18 08:36:53;;;;;;;0.30;0.20;;;3.00;99.90;;;;;;5088191;28;20436;-85
2022/01/18 08:39:22;;;;;;;0.30;0.10;;;2.90;99.90;;;;;;5093059;28;21030;-86
2022/01/18 08:41:50;;;;;;;0.30;0.10;;;3.00;99.90;;;;;;5095949;28;20449;-85
2022/01/18 08:44:17;;;;;;;0.30;0.10;;;3.00;99.90;;;;;;5090000;28;20474;-87
2022/01/18 08:46:44;;;;;;;0.30;0.10;;;3.00;99.90;;;;;;5092625;28;20825;-85
2022/01/18 08:49:11;;;;;;;0.30;0.10;;;3.00;99.90;;;;;;5092197;28;21002;-85
2022/01/18 08:51:38;;;;;;;0.30;0.10;;;3.00;99.90;;;;;;5092582;28;20462;-86
2022/01/18 08:54:05;;;;;;;0.30;0.10;;;3.10;99.90;;;;;;5093493;28;20508;-85
2022/01/18 08:56:34;;;;;;;0.30;0.10;;;3.10;99.90;;;;;;5077080;28;20483;-87
2022/01/18 08:59:01;;;;;;;1.33;0.30;;;3.10;99.90;;;;;;5053028;28;20533;-85
2022/01/18 09:01:28;;;;;;;0.30;0.10;;;3.10;99.90;;;;;;5059707;28;20460;-85
2022/01/18 09:03:55;;;;;;;0.30;0.10;;;3.10;99.90;;;;;;5092311;28;20465;-88
2022/01/18 09:06:24;;;;;;;0.40;0.20;;;3.20;99.90;;;;;;5093972;28;20525;-85
2022/01/18 09:08:56;;;;;;;0.30;0.10;;;3.10;99.90;;;;;;5088791;28;20446;-86
2022/01/18 09:11:24;;;;;;;0.30;0.10;;;3.20;99.90;;;;;;5074932;28;20919;-87
2022/01/18 09:13:53;;;;;;;0.30;0.23;;;3.20;99.90;;;;;;5071235;28;20460;-86
2022/01/18 09:16:20;;;;;;;0.30;0.10;;;3.20;99.90;;;;;;5055423;28;20484;-86
2022/01/18 09:18:50;;;;;;;0.30;0.10;;;3.20;99.90;;;;;;5056615;28;20448;-85
2022/01/18 09:21:17;;;;;;;0.30;0.10;;;3.20;99.90;;;;;;5063084;28;20472;-86
2022/01/18 09:23:45;;;;;;;0.30;0.10;;;3.30;99.90;;;;;;5077552;28;20443;-87
2022/01/18 09:26:13;;;;;;;0.30;0.10;;;3.40;99.90;;;;;;5072151;28;20832;-88
2022/01/18 09:28:41;;;;;;;0.30;0.10;;;3.40;99.90;;;;;;5069835;28;20942;-90
2022/01/18 09:31:10;;;;;;;0.30;0.20;;;3.40;99.90;;;;;;5071771;28;20977;-87
2022/01/18 09:33:37;;;;;;;0.40;0.30;;;3.40;99.90;;;;;;5071911;28;20448;-89
2022/01/18 09:36:04;;;;;;;0.30;0.20;;;3.40;99.90;;;;;;5066548;28;20484;-90
2022/01/18 09:38:31;;;;;;;0.30;0.10;;;3.50;99.90;;;;;;5071974;28;20440;-87
2022/01/18 09:41:00;;;;;;;0.30;0.10;;;3.60;99.90;;;;;;5064348;28;21201;-86
2022/01/18 09:43:28;;;;;;;0.50;0.30;;;3.60;99.90;;;;;;5072721;28;20436;-91
2022/01/18 09:45:57;;;;;;;1.23;1.23;;;3.70;99.90;;;;;;5072754;28;20452;-93
2022/01/18 09:48:26;;;;;;;0.30;0.10;;;3.80;99.90;;;;;;5069004;28;21222;-87
2022/01/18 09:50:53;;;;;;;0.30;0.10;;;3.90;99.90;;;;;;5067175;28;20449;-88
2022/01/18 09:53:20;;;;;;;0.30;0.17;;;3.90;99.90;;;;;;5069305;28;20448;-88
2022/01/18 09:55:49;;;;;;;1.57;1.57;;;3.90;99.90;;;;;;5071246;28;20483;-87
2022/01/18 09:58:16;;;;;;;0.30;0.10;;;4.00;99.90;;;;;;5086006;28;20477;-87
2022/01/18 10:00:43;;;;;;;0.30;0.10;;;4.00;99.90;;;;;;5086303;28;20832;-87
2022/01/18 10:03:29;;;;;;;1.63;0.60;;;4.00;99.90;;;;;;5072152;28;20521;-88
2022/01/18 10:05:56;;;;;;;0.30;0.10;;;4.00;99.90;;;;;;5072013;28;20432;-87
2022/01/18 10:08:23;;;;;;;0.40;0.30;;;4.00;99.90;;;;;;5109154;28;20438;-90
2022/01/18 10:10:53;;;;;;;0.30;0.10;;;4.00;99.90;;;;;;5115854;28;20472;-89
2022/01/18 10:13:22;;;;;;;0.30;0.10;;;3.90;99.90;;;;;;5114085;28;20476;-89
2022/01/18 10:16:04;;;;;;;0.30;0.10;;;3.90;99.90;;;;;;5114844;28;20509;-89
2022/01/18 10:18:45;;;;;;;0.40;0.20;;;3.90;99.90;;;;;;5097620;28;20469;-90
2022/01/18 10:21:13;;;;;;;0.30;0.10;;;4.00;99.90;;;;;;5094263;28;20914;-92
2022/01/18 10:23:48;;;;;;;0.30;0.10;;;4.00;99.90;;;;;;5089202;28;20450;-92
2022/01/18 10:26:24;;;;;;;0.30;0.10;;;3.90;99.90;;;;;;5087339;28;20931;-92
2022/01/18 10:29:01;;;;;;;3.70;1.60;;;3.90;99.90;;;;;;5089412;28;20450;-91
2022/01/18 10:31:34;;;;;;;0.30;0.10;;;3.90;99.90;;;;;;5090646;28;20540;-89
2022/01/18 10:34:26;;;;;;;0.30;0.10;;;4.10;99.90;;;;;;5090845;28;20926;-90
2022/01/18 10:37:07;;;;;;;0.30;0.10;;;3.90;99.90;;;;;;5095549;28;20490;-91
2022/01/18 10:39:39;;;;;;;0.30;0.10;;;3.90;99.90;;;;;;5099880;28;20877;-90
2022/01/18 10:42:16;;;;;;;0.30;0.10;;;3.90;99.90;;;;;;5097631;28;20496;-91
2022/01/18 10:44:46;;;;;;;0.30;0.10;;;3.80;99.90;;;;;;5094514;28;20454;-93
2022/01/18 10:47:14;;;;;;;0.30;0.10;;;3.80;99.90;;;;;;5088436;28;20460;-90
2022/01/18 10:49:47;;;;;;;0.30;0.10;;;3.90;99.90;;;;;;5070619;28;20766;-91
2022/01/18 10:52:18;;;;;;;0.30;0.20;;;4.00;99.90;;;;;;5085257;28;20847;-90
2022/01/18 10:54:47;;;;;;;0.30;0.10;;;4.00;99.90;;;;;;5090573;28;20957;-90
2022/01/18 10:57:18;;;;;;;0.30;0.10;;;4.00;99.90;;;;;;5078974;28;20487;-90
2022/01/18 10:59:46;;;;;;;0.30;0.10;;;4.10;99.90;;;;;;5083935;28;20942;-94
2022/01/18 11:02:17;;;;;;;0.30;0.10;;;4.10;99.90;;;;;;5090447;28;20858;-91
2022/01/18 11:04:48;;;;;;;0.30;0.10;;;4.00;99.90;;;;;;5091675;28;21114;-90
2022/01/18 11:07:16;;;;;;;0.30;0.10;;;4.10;99.90;;;;;;5077752;28;20467;-90
2022/01/18 11:09:44;;;;;;;0.30;0.10;;;4.10;99.90;;;;;;5071237;28;20964;-90
2022/01/18 11:12:12;;;;;;;0.30;0.20;;;4.10;99.90;;;;;;5081229;28;20454;-90
2022/01/18 11:14:43;;;;;;;0.30;0.10;;;3.90;99.90;;;;;;5091257;28;20455;-89
2022/01/18 11:17:14;;;;;;;0.30;0.10;;;4.00;99.90;;;;;;5079779;28;20486;-88
2022/01/18 11:19:41;;;;;;;0.30;0.10;;;3.90;99.90;;;;;;5083969;28;21026;-93
2022/01/18 11:22:11;;;;;;;0.30;0.10;;;4.10;99.90;;;;;;5081826;28;20459;-88
2022/01/18 11:24:40;;;;;;;0.30;0.10;;;4.20;99.90;;;;;;5083241;28;20498;-90
2022/01/18 11:27:12;;;;;;;0.30;0.20;;;4.20;99.90;;;;;;5070954;28;20452;-91
2022/01/18 11:29:39;;;;;;;0.30;0.10;;;4.10;99.90;;;;;;5070377;28;20492;-90
2022/01/18 11:32:07;;;;;;;0.30;0.13;;;4.20;99.90;;;;;;5069508;28;20452;-89
2022/01/18 11:34:49;;;;;;;0.30;0.20;;;4.10;99.90;;;;;;5074806;28;20450;-87
2022/01/18 11:37:27;;;;;;;0.30;0.20;;;4.10;99.90;;;;;;5083648;28;20483;-91
2022/01/18 11:40:02;;;;;;;0.30;0.10;;;4.10;99.90;;;;;;5077827;28;20451;-89
2022/01/18 11:42:41;;;;;;;0.30;0.20;;;4.10;99.90;;;;;;5081236;28;20435;-90
2022/01/18 11:45:32;;;;;;;0.30;0.10;;;4.20;99.90;;;;;;5098739;28;20451;-89
2022/01/18 11:48:02;;;;;;;0.30;0.10;;;4.30;99.90;;;;;;5095305;28;20451;-88
2022/01/18 11:50:30;;;;;;;0.30;0.10;;;4.30;99.90;;;;;;5097369;28;20483;-90
2022/01/18 11:53:22;;;;;;;0.30;0.10;;;4.30;99.90;;;;;;5081546;28;20460;-88
2022/01/18 11:55:50;;;;;;;0.30;0.10;;;4.20;99.90;;;;;;5084783;28;20532;-91
2022/01/18 11:58:17;;;;;;;0.30;0.10;;;4.20;99.90;;;;;;5074043;28;20950;-90
2022/01/18 12:00:51;;;;;;;0.30;0.10;;;4.30;99.90;;;;;;5074132;28;20466;-89
2022/01/18 12:03:22;;;;;;;0.30;0.20;;;4.20;99.90;;;;;;5074253;28;20447;-91
2022/01/18 12:05:50;;;;;;;0.30;0.10;;;4.10;99.90;;;;;;5073972;28;20520;-90
2022/01/18 12:08:34;;;;;;;0.30;0.10;;;4.00;99.90;;;;;;5082654;28;20461;-93
2022/01/18 12:11:03;;;;;;;0.30;0.10;;;4.00;99.90;;;;;;5074134;28;20546;-90
2022/01/18 12:13:36;;;;;;;0.30;0.10;;;4.00;99.90;;;;;;5094115;28;20462;-89
2022/01/18 12:16:10;;;;;;;0.30;0.10;;;4.00;99.90;;;;;;5094741;28;20564;-91
2022/01/18 12:18:51;;;;;;;0.30;0.20;;;4.00;99.90;;;;;;5093925;28;20453;-92
2022/01/18 12:21:22;;;;;;;0.30;0.10;;;4.00;99.90;;;;;;5091902;28;20439;-90
2022/01/18 12:23:50;;;;;;;0.30;0.10;;;4.00;99.90;;;;;;5092758;28;20951;-93
2022/01/18 12:26:32;;;;;;;0.30;0.10;;;4.00;99.90;;;;;;5094003;28;20925;-89
2022/01/18 12:29:22;;;;;;;0.30;0.10;;;4.00;99.90;;;;;;5077309;28;20462;-88
2022/01/18 12:35:00;;;;;;;0.30;0.10;;;4.20;99.90;;;;;;5074346;28;20470;-91
2022/01/18 12:37:54;;;;;;;0.30;0.10;;;4.10;99.90;;;;;;5076397;28;20510;-91
2022/01/18 12:40:29;;;;;;;0.30;0.10;;;4.20;99.90;;;;;;5094172;28;20439;-89
2022/01/18 12:45:54;;;;;;;0.30;0.10;;;4.20;99.90;;;;;;5073344;28;20438;-92
2022/01/18 12:48:21;;;;;;;0.30;0.10;;;4.20;99.90;;;;;;5073898;28;20466;-90
2022/01/18 12:50:51;;;;;;;0.30;0.10;;;4.30;99.90;;;;;;5090858;28;20455;-91
2022/01/18 12:53:22;;;;;;;0.30;0.10;;;4.20;99.90;;;;;;5093616;28;20490;-90
2022/01/18 12:55:54;;;;;;;0.30;0.10;;;4.20;99.90;;;;;;5092136;28;20466;-86
2022/01/18 12:58:24;;;;;;;0.30;0.10;;;4.30;99.90;;;;;;5093498;28;20482;-89
2022/01/18 13:00:53;;;;;;;0.30;0.10;;;4.20;99.90;;;;;;5093521;28;20462;-89
2022/01/18 13:03:22;;;;;;;0.30;0.10;;;4.20;99.90;;;;;;5093433;28;20455;-90
2022/01/18 13:05:52;;;;;;;0.30;0.10;;;4.20;99.90;;;;;;5075404;28;20448;-90
2022/01/18 13:08:20;;;;;;;0.70;0.70;;;4.10;99.90;;;;;;5075108;28;20787;-92
2022/01/18 13:10:50;;;;;;;0.30;0.10;;;4.10;99.90;;;;;;5087903;28;20463;-89
2022/01/18 13:13:21;;;;;;;0.30;0.10;;;4.10;99.90;;;;;;5093373;28;20440;-90
2022/01/18 13:16:05;;;;;;;0.30;0.10;;;3.90;99.90;;;;;;5096990;28;20486;-89
2022/01/18 13:24:48;;;;;;;0.30;0.10;;;3.60;99.90;;;;;;5099133;28;20457;-89
2022/01/18 13:27:24;;;;;;;0.30;0.10;;;3.70;99.90;;;;;;5099321;28;20458;-90
2022/01/18 13:29:54;;;;;;;0.30;0.10;;;3.70;99.90;;;;;;5117566;28;20462;-91
2022/01/18 13:32:26;;;;;;;0.40;0.20;;;3.70;99.90;;;;;;5116255;28;20454;-89
2022/01/18 13:34:57;;;;;;;0.30;0.10;;;3.60;99.90;;;;;;5118341;28;20484;-91
2022/01/18 13:37:27;;;;;;;0.30;0.10;;;3.70;99.90;;;;;;5112560;28;20953;-90
2022/01/18 13:39:56;;;;;;;0.30;0.10;;;3.70;99.90;;;;;;5103643;28;20446;-89
2022/01/18 13:42:29;;;;;;;0.30;0.10;;;3.70;99.90;;;;;;5103052;28;20450;-89
2022/01/18 13:45:24;;;;;;;0.30;0.10;;;3.70;99.90;;;;;;5102735;28;20450;-89
2022/01/18 13:47:53;;;;;;;0.30;0.10;;;3.80;99.90;;;;;;5055923;28;20440;-91
2022/01/18 13:50:43;;;;;;;0.30;0.20;;;3.70;99.90;;;;;;5099111;28;20808;-90
2022/01/18 13:53:14;;;;;;;0.30;0.10;;;3.80;99.90;;;;;;5093589;28;20458;-90
2022/01/18 13:55:48;;;;;;;0.30;0.20;;;3.70;99.90;;;;;;5092656;28;20447;-90
2022/01/18 13:58:20;;;;;;;0.30;0.10;;;3.70;99.90;;;;;;5092523;28;20965;-90
2022/01/18 14:00:47;;;;;;;0.30;0.10;;;3.70;99.90;;;;;;5092360;28;20518;-88
2022/01/18 14:03:30;;;;;;;0.30;0.10;;;3.70;99.90;;;;;;5084765;28;20494;-89
2022/01/18 14:05:57;;;;;;;0.30;0.10;;;3.70;99.90;;;;;;5071451;28;20517;-89